Time;durP1;ratioP1;P1;durP2;ratioP2;P2;SDS_P1;SDS_P2;PMS_P1;PMS_P2;Temp;Humidity;BMP_temperature;BMP_pressure;BME280_temperature;BME280_humidity;BME280_pressure;Samples;Min_cycle;Max_cycle;Signal;HPM_P1;HPM_P2
2024/03/18 00:00:41;;;;;;;10.40;4.90;;;;;;;6.05;80.27;101259.70;107448;1253;108784;-62
2024/03/18 00:03:29;;;;;;;10.70;5.20;;;;;;;5.98;80.57;101257.74;107597;1253;108002;-67
2024/03/18 00:05:58;;;;;;;11.00;5.40;;;;;;;5.88;80.39;101257.42;107607;1254;99269;-63
2024/03/18 00:08:26;;;;;;;8.60;4.60;;;;;;;5.81;80.42;101251.13;107558;1253;99154;-63
2024/03/18 00:10:55;;;;;;;12.40;4.90;;;;;;;5.69;81.17;101247.02;107601;1254;112432;-63
2024/03/18 00:13:23;;;;;;;12.00;4.60;;;;;;;5.58;81.41;101252.48;107652;1254;109345;-63
2024/03/18 00:15:51;;;;;;;6.80;4.40;;;;;;;5.51;81.62;101249.53;107408;1257;108002;-62
2024/03/18 00:18:19;;;;;;;8.20;5.00;;;;;;;5.46;82.45;101249.29;107548;1253;99169;-61
2024/03/18 00:20:47;;;;;;;12.70;4.70;;;;;;;5.44;82.70;101246.20;107622;1253;99067;-61
2024/03/18 00:23:15;;;;;;;8.40;4.90;;;;;;;5.39;82.73;101240.45;107690;1252;113560;-63
2024/03/18 00:25:43;;;;;;;9.80;4.80;;;;;;;5.42;82.57;101231.40;107554;1252;108701;-60
2024/03/18 00:28:13;;;;;;;9.00;5.20;;;;;;;5.51;82.82;101228.17;107568;1252;108159;-63
2024/03/18 00:30:41;;;;;;;11.20;6.40;;;;;;;5.60;82.88;101231.02;107500;1256;99185;-63
2024/03/18 00:33:12;;;;;;;8.90;5.10;;;;;;;5.63;82.39;101229.80;107589;1254;99070;-62
2024/03/18 00:35:40;;;;;;;12.20;5.90;;;;;;;5.68;82.61;101222.38;107570;1254;112515;-64
2024/03/18 00:38:10;;;;;;;10.00;5.30;;;;;;;5.77;82.44;101217.75;107569;1254;108342;-63
2024/03/18 00:40:38;;;;;;;10.30;6.10;;;;;;;5.84;82.36;101221.42;107592;1256;107820;-62
2024/03/18 00:43:07;;;;;;;15.50;6.00;;;;;;;5.90;82.30;101224.01;107630;1254;99061;-62
2024/03/18 00:45:35;;;;;;;14.80;6.90;;;;;;;5.96;82.27;101220.84;107607;1256;99717;-62
2024/03/18 00:48:05;;;;;;;12.50;6.80;;;;;;;5.96;81.93;101214.23;107452;1254;113726;-61
2024/03/18 00:50:33;;;;;;;15.80;6.90;;;;;;;6.01;81.82;101210.91;107611;1254;106870;-61
2024/03/18 00:53:02;;;;;;;14.90;6.50;;;;;;;6.07;81.79;101211.98;107617;1254;107824;-62
2024/03/18 00:55:33;;;;;;;18.80;8.50;;;;;;;6.12;81.59;101213.63;107621;1253;99202;-64
2024/03/18 00:58:03;;;;;;;10.70;6.70;;;;;;;6.16;81.73;101206.44;107634;1252;99694;-63
2024/03/18 01:00:31;;;;;;;12.50;6.90;;;;;;;6.22;81.57;101204.48;107635;1252;112920;-62
2024/03/18 01:02:59;;;;;;;15.80;7.80;;;;;;;6.26;81.31;101204.39;107639;1252;107899;-61
2024/03/18 01:05:28;;;;;;;13.40;7.20;;;;;;;6.28;81.10;101209.96;107589;1256;108136;-63
2024/03/18 01:07:56;;;;;;;13.40;7.60;;;;;;;6.29;81.03;101213.29;107563;1256;99083;-62
2024/03/18 01:10:25;;;;;;;13.70;7.70;;;;;;;6.28;80.74;101213.88;107536;1254;99141;-63
2024/03/18 01:12:56;;;;;;;12.30;7.30;;;;;;;6.28;80.53;101210.86;107539;1254;112677;-61
2024/03/18 01:15:25;;;;;;;12.60;7.40;;;;;;;6.26;80.35;101214.01;107457;1254;108328;-63
2024/03/18 01:17:53;;;;;;;11.00;6.80;;;;;;;6.26;80.26;101217.95;107392;1253;108621;-61
2024/03/18 01:20:22;;;;;;;13.80;7.50;;;;;;;6.27;80.21;101215.91;107649;1254;99197;-62
2024/03/18 01:22:50;;;;;;;11.40;7.30;;;;;;;6.25;79.98;101208.55;107616;1253;99752;-61
2024/03/18 01:25:19;;;;;;;12.30;7.00;;;;;;;6.25;79.92;101200.36;107649;1255;112097;-61
2024/03/18 01:27:47;;;;;;;14.80;7.00;;;;;;;6.24;79.66;101195.98;107644;1255;108671;-61
2024/03/18 01:30:16;;;;;;;13.60;6.30;;;;;;;6.21;79.62;101191.00;107579;1253;107537;-64
2024/03/18 01:32:44;;;;;;;12.00;6.80;;;;;;;6.18;79.43;101190.28;107615;1253;99195;-65
2024/03/18 01:35:12;;;;;;;11.80;6.20;;;;;;;6.16;79.40;101192.17;107618;1255;99368;-66
2024/03/18 01:37:40;;;;;;;14.80;6.60;;;;;;;6.16;79.59;101187.06;107581;1254;112780;-64
2024/03/18 01:40:13;;;;;;;10.10;6.40;;;;;;;6.15;79.36;101185.67;107656;1253;107974;-64
2024/03/18 01:42:44;;;;;;;12.40;5.90;;;;;;;6.14;79.37;101180.92;107555;1252;106630;-63
2024/03/18 01:45:21;;;;;;;8.10;5.40;;;;;;;6.08;78.90;101179.54;107572;1253;99201;-62
2024/03/18 01:47:54;;;;;;;15.50;6.00;;;;;;;6.02;78.69;101181.65;107675;1254;99359;-61
2024/03/18 01:50:22;;;;;;;15.70;5.10;;;;;;;5.97;78.49;101188.36;107673;1253;113755;-63
2024/03/18 01:52:51;;;;;;;12.40;4.80;;;;;;;5.97;78.56;101189.77;107608;1254;108407;-62
2024/03/18 01:55:19;;;;;;;11.30;5.70;;;;;;;5.96;78.43;101184.70;107616;1254;108177;-62
2024/03/18 01:57:48;;;;;;;10.40;4.90;;;;;;;5.94;78.16;101183.55;107648;1254;99175;-68
2024/03/18 02:00:24;;;;;;;16.50;4.60;;;;;;;5.92;78.10;101189.77;107602;1256;99307;-62
2024/03/18 02:02:52;;;;;;;10.60;4.60;;;;;;;5.93;77.93;101203.91;107460;1253;112779;-62
2024/03/18 02:05:21;;;;;;;8.50;4.90;;;;;;;5.92;77.91;101207.89;107557;1253;107278;-62
2024/03/18 02:07:49;;;;;;;13.00;5.40;;;;;;;5.91;77.61;101205.46;107576;1252;106542;-62
2024/03/18 02:10:19;;;;;;;13.70;4.50;;;;;;;5.89;77.20;101192.05;107575;1254;99298;-61
2024/03/18 02:12:47;;;;;;;9.80;4.50;;;;;;;5.84;76.65;101192.72;107575;1254;100304;-62
2024/03/18 02:15:15;;;;;;;12.70;4.10;;;;;;;5.74;76.33;101195.65;107586;1254;112654;-61
2024/03/18 02:17:43;;;;;;;8.50;4.20;;;;;;;5.68;76.05;101203.02;107466;1253;107471;-61
2024/03/18 02:20:12;;;;;;;10.30;4.90;;;;;;;5.65;76.60;101203.86;107592;1252;107450;-62
2024/03/18 02:22:40;;;;;;;7.90;4.30;;;;;;;5.61;76.20;101199.65;107593;1253;99197;-61
2024/03/18 02:25:09;;;;;;;12.30;4.10;;;;;;;5.53;76.00;101199.77;107574;1253;99308;-62
2024/03/18 02:27:38;;;;;;;16.80;4.80;;;;;;;5.49;76.29;101207.14;107612;1254;112151;-64
2024/03/18 02:30:10;;;;;;;12.10;4.50;;;;;;;5.48;76.40;101209.15;107559;1253;108365;-64
2024/03/18 02:32:41;;;;;;;11.70;4.60;;;;;;;5.47;76.66;101214.16;107535;1255;107754;-65
2024/03/18 02:35:16;;;;;;;14.70;4.60;;;;;;;5.49;76.57;101208.73;107611;1252;99167;-64
2024/03/18 02:37:45;;;;;;;11.90;4.90;;;;;;;5.53;76.65;101200.85;107622;1254;99192;-61
2024/03/18 02:40:13;;;;;;;11.40;3.90;;;;;;;5.58;76.88;101195.91;107554;1254;111994;-62
2024/03/18 02:42:41;;;;;;;10.60;4.30;;;;;;;5.63;76.95;101199.86;107417;1252;107280;-65
2024/03/18 02:45:11;;;;;;;12.80;4.40;;;;;;;5.69;77.20;101197.77;107462;1252;108292;-61
2024/03/18 02:47:41;;;;;;;14.70;4.60;;;;;;;5.74;77.11;101194.61;107617;1252;99166;-62
2024/03/18 02:50:10;;;;;;;10.00;4.50;;;;;;;5.78;77.35;101190.22;107634;1254;99180;-61
2024/03/18 02:52:40;;;;;;;13.50;4.50;;;;;;;5.84;77.05;101179.75;107605;1254;112731;-62
2024/03/18 02:55:09;;;;;;;11.60;4.90;;;;;;;5.88;77.25;101176.10;107589;1252;108525;-64
2024/03/18 02:57:37;;;;;;;12.20;5.60;;;;;;;5.92;77.04;101173.18;107530;1254;108175;-62
2024/03/18 03:00:06;;;;;;;15.00;5.50;;;;;;;5.95;76.82;101175.63;107557;1252;99371;-62
2024/03/18 03:02:34;;;;;;;14.10;4.70;;;;;;;5.97;76.78;101175.52;107584;1252;99732;-62
2024/03/18 03:05:04;;;;;;;9.00;4.30;;;;;;;6.00;76.87;101181.45;107576;1254;113759;-63
2024/03/18 03:07:32;;;;;;;11.10;5.60;;;;;;;6.02;76.75;101182.94;107565;1253;108359;-62
2024/03/18 03:10:03;;;;;;;11.10;4.70;;;;;;;6.02;76.66;101178.11;107512;1254;108203;-62
2024/03/18 03:12:31;;;;;;;13.60;5.10;;;;;;;6.01;76.25;101174.61;107562;1253;99198;-62
2024/03/18 03:15:00;;;;;;;8.50;4.30;;;;;;;6.01;76.35;101176.27;107553;1254;99647;-62
2024/03/18 03:17:29;;;;;;;6.90;3.60;;;;;;;6.01;76.33;101176.62;107573;1253;112802;-62
2024/03/18 03:19:57;;;;;;;9.60;4.40;;;;;;;6.00;76.55;101180.38;107564;1254;108128;-62
2024/03/18 03:22:25;;;;;;;11.70;4.20;;;;;;;6.01;76.43;101175.34;107543;1253;107906;-64
2024/03/18 03:24:53;;;;;;;11.90;4.90;;;;;;;6.00;76.50;101173.29;107594;1253;99182;-64
2024/03/18 03:27:22;;;;;;;9.20;4.50;;;;;;;5.97;76.59;101176.27;107467;1254;99313;-62
2024/03/18 03:29:50;;;;;;;10.80;4.40;;;;;;;5.96;76.83;101176.33;107574;1253;113197;-62
2024/03/18 03:32:18;;;;;;;10.20;4.00;;;;;;;5.96;76.81;101178.63;107535;1256;108319;-63
2024/03/18 03:34:47;;;;;;;12.20;4.60;;;;;;;5.96;76.97;101179.70;107546;1253;107436;-61
2024/03/18 03:37:15;;;;;;;12.60;4.40;;;;;;;5.90;76.62;101173.11;107539;1253;99035;-62
2024/03/18 03:39:44;;;;;;;9.10;4.80;;;;;;;5.88;76.79;101169.64;107649;1254;99150;-63
2024/03/18 03:42:12;;;;;;;9.80;5.10;;;;;;;5.87;76.86;101167.95;107571;1252;112020;-64
2024/03/18 03:44:40;;;;;;;11.20;5.00;;;;;;;5.86;76.95;101169.27;107556;1254;108699;-62
2024/03/18 03:47:08;;;;;;;11.10;5.10;;;;;;;5.86;77.13;101160.05;107580;1253;108749;-63
2024/03/18 03:49:37;;;;;;;14.70;4.90;;;;;;;5.87;77.22;101148.74;107603;1254;99295;-64
2024/03/18 03:52:05;;;;;;;11.30;4.90;;;;;;;5.86;77.33;101133.69;107588;1253;99199;-63
2024/03/18 03:54:34;;;;;;;11.10;4.90;;;;;;;5.85;77.16;101130.38;107555;1254;113138;-62
2024/03/18 03:57:02;;;;;;;9.80;5.10;;;;;;;5.86;77.43;101133.35;107543;1254;107673;-63
2024/03/18 03:59:30;;;;;;;12.00;5.60;;;;;;;5.87;77.38;101132.05;107563;1252;108605;-63
2024/03/18 04:01:59;;;;;;;10.80;5.00;;;;;;;5.87;77.33;101136.83;107412;1253;99220;-62
2024/03/18 04:04:27;;;;;;;11.30;6.10;;;;;;;5.88;77.44;101137.83;107540;1252;99172;-62
2024/03/18 04:06:55;;;;;;;14.90;5.10;;;;;;;5.91;77.43;101141.56;107586;1254;112590;-62
2024/03/18 04:09:23;;;;;;;15.00;6.50;;;;;;;5.89;76.98;101140.98;107564;1254;108551;-62
2024/03/18 04:11:52;;;;;;;10.50;5.00;;;;;;;5.89;76.96;101145.43;107539;1254;108599;-62
2024/03/18 04:14:20;;;;;;;11.60;6.10;;;;;;;5.88;76.88;101145.48;107559;1256;99630;-63
2024/03/18 04:16:48;;;;;;;10.30;5.00;;;;;;;5.88;77.08;101144.24;107595;1256;99269;-63
2024/03/18 04:19:18;;;;;;;10.50;5.10;;;;;;;5.86;76.81;101140.62;107494;1254;113526;-63
2024/03/18 04:21:46;;;;;;;11.30;6.00;;;;;;;5.86;77.01;101140.09;107594;1254;107791;-62
2024/03/18 04:24:14;;;;;;;11.90;6.20;;;;;;;5.86;77.24;101140.82;107566;1252;107423;-62
2024/03/18 04:26:42;;;;;;;9.50;5.70;;;;;;;5.85;77.31;101141.77;107506;1253;99186;-63
2024/03/18 04:29:11;;;;;;;12.60;5.70;;;;;;;5.83;77.18;101141.52;107595;1252;99727;-64
2024/03/18 04:31:39;;;;;;;16.60;7.90;;;;;;;5.81;77.34;101137.20;107557;1253;112543;-64
2024/03/18 04:34:07;;;;;;;15.90;6.20;;;;;;;5.78;77.15;101142.02;107490;1254;107794;-64
2024/03/18 04:36:35;;;;;;;19.90;8.80;;;;;;;5.73;77.25;101142.17;107595;1253;108045;-67
2024/03/18 04:39:03;;;;;;;9.60;4.80;;;;;;;5.70;77.10;101140.05;107559;1254;99177;-63
2024/03/18 04:41:31;;;;;;;16.00;6.00;;;;;;;5.68;77.39;101141.09;107530;1252;99194;-63
2024/03/18 04:44:00;;;;;;;9.90;5.40;;;;;;;5.66;77.63;101135.98;107566;1254;113521;-62
2024/03/18 04:46:29;;;;;;;11.30;5.00;;;;;;;5.64;77.46;101130.95;107511;1254;107096;-62
2024/03/18 04:48:57;;;;;;;13.50;5.90;;;;;;;5.60;77.18;101124.44;107548;1256;107748;-63
2024/03/18 04:51:25;;;;;;;10.50;5.60;;;;;;;5.58;77.54;101126.33;107601;1254;99177;-63
2024/03/18 04:53:54;;;;;;;16.00;9.50;;;;;;;5.58;77.88;101127.22;107648;1251;99178;-63
2024/03/18 04:56:22;;;;;;;21.30;8.40;;;;;;;5.62;78.19;101123.61;107603;1251;113273;-63
2024/03/18 04:58:51;;;;;;;18.80;7.80;;;;;;;5.65;78.15;101123.77;107653;1254;108349;-62
2024/03/18 05:01:19;;;;;;;20.50;10.00;;;;;;;5.66;78.02;101128.02;107572;1251;108371;-62
2024/03/18 05:03:47;;;;;;;20.10;9.50;;;;;;;5.68;78.04;101133.98;107607;1251;99182;-65
2024/03/18 05:06:18;;;;;;;13.30;7.80;;;;;;;5.71;78.31;101135.67;107635;1251;99070;-64
2024/03/18 05:08:49;;;;;;;20.10;9.40;;;;;;;5.77;78.37;101136.88;107627;1250;112129;-64
2024/03/18 05:11:17;;;;;;;15.00;7.50;;;;;;;5.85;78.48;101139.84;107627;1251;107675;-62
2024/03/18 05:13:45;;;;;;;13.40;6.10;;;;;;;5.90;78.34;101137.16;107630;1254;106540;-65
2024/03/18 05:16:13;;;;;;;11.80;6.00;;;;;;;5.94;78.57;101140.83;107571;1253;99767;-62
2024/03/18 05:18:42;;;;;;;11.60;5.00;;;;;;;5.98;78.34;101142.94;107592;1253;99698;-63
2024/03/18 05:21:10;;;;;;;9.70;5.40;;;;;;;6.01;78.46;101145.46;107606;1254;112565;-64
2024/03/18 05:23:39;;;;;;;10.90;6.50;;;;;;;6.03;78.56;101152.23;107595;1254;107908;-62
2024/03/18 05:26:07;;;;;;;12.10;5.40;;;;;;;6.07;78.58;101151.45;107594;1253;108308;-62
2024/03/18 05:28:35;;;;;;;16.00;5.30;;;;;;;6.10;78.31;101152.48;107586;1253;99185;-62
2024/03/18 05:31:04;;;;;;;10.10;5.40;;;;;;;6.14;78.48;101160.13;107616;1251;99730;-62
2024/03/18 05:33:32;;;;;;;19.00;7.10;;;;;;;6.14;78.26;101158.83;107556;1251;112603;-62
2024/03/18 05:36:00;;;;;;;13.00;7.00;;;;;;;6.18;78.25;101160.71;107617;1250;107995;-62
2024/03/18 05:38:28;;;;;;;16.70;8.30;;;;;;;6.23;78.24;101162.52;107584;1251;108860;-63
2024/03/18 05:40:56;;;;;;;13.80;7.90;;;;;;;6.28;77.91;101155.14;107573;1251;99189;-62
2024/03/18 05:43:25;;;;;;;15.00;7.90;;;;;;;6.30;77.83;101160.51;107615;1251;99060;-61
2024/03/18 05:45:53;;;;;;;18.30;7.70;;;;;;;6.23;76.29;101163.43;107598;1254;112622;-60
2024/03/18 05:48:21;;;;;;;14.80;8.30;;;;;;;6.17;75.85;101168.11;107598;1251;108355;-60
2024/03/18 05:50:49;;;;;;;13.00;6.30;;;;;;;6.13;75.62;101171.54;107589;1251;107625;-63
2024/03/18 05:53:18;;;;;;;16.30;6.70;;;;;;;6.08;75.36;101170.28;107625;1251;99199;-63
2024/03/18 05:55:46;;;;;;;14.90;6.70;;;;;;;5.97;74.85;101169.88;107616;1251;99073;-62
2024/03/18 05:58:14;;;;;;;14.30;5.90;;;;;;;5.86;74.75;101171.45;107637;1254;112839;-63
2024/03/18 06:00:43;;;;;;;19.90;7.20;;;;;;;5.82;75.13;101168.14;107648;1251;108075;-62
2024/03/18 06:03:11;;;;;;;14.80;6.90;;;;;;;5.82;75.09;101169.73;107578;1254;108120;-63
2024/03/18 06:05:40;;;;;;;12.30;6.60;;;;;;;5.83;75.04;101169.14;107635;1251;99058;-61
2024/03/18 06:08:08;;;;;;;14.90;6.80;;;;;;;5.77;74.86;101171.45;107643;1251;99824;-63
2024/03/18 06:10:36;;;;;;;15.70;6.90;;;;;;;5.76;75.01;101168.48;107616;1251;113459;-62
2024/03/18 06:13:05;;;;;;;16.60;6.60;;;;;;;5.74;74.90;101168.59;107588;1254;108614;-63
2024/03/18 06:15:33;;;;;;;17.20;7.00;;;;;;;5.75;74.98;101168.02;107596;1251;108110;-62
2024/03/18 06:18:01;;;;;;;12.50;6.00;;;;;;;5.69;74.65;101170.17;107582;1251;99049;-62
2024/03/18 06:20:29;;;;;;;11.40;5.70;;;;;;;5.58;74.26;101168.66;107591;1253;99060;-63
2024/03/18 06:22:57;;;;;;;13.40;5.80;;;;;;;5.51;74.38;101170.35;107596;1255;112568;-63
2024/03/18 06:28:12;;;;;;;16.50;5.70;;;;;;;5.48;74.65;101168.23;107593;1251;107491;-63
2024/03/18 06:30:40;;;;;;;13.60;5.20;;;;;;;5.48;74.00;101165.39;107623;1251;99169;-64
2024/03/18 06:33:08;;;;;;;14.10;6.10;;;;;;;5.49;74.19;101164.06;107575;1251;99184;-66
2024/03/18 06:35:37;;;;;;;11.20;4.70;;;;;;;5.46;73.96;101159.42;107630;1251;113265;-63
2024/03/18 06:38:05;;;;;;;12.70;5.20;;;;;;;5.48;73.97;101155.08;107565;1251;107551;-63
2024/03/18 06:40:33;;;;;;;14.10;5.30;;;;;;;5.46;73.41;101154.08;107576;1251;108033;-62
2024/03/18 06:43:02;;;;;;;15.70;5.60;;;;;;;5.40;73.08;101151.81;107543;1254;99163;-63
2024/03/18 06:45:30;;;;;;;16.50;5.80;;;;;;;5.39;72.83;101146.91;107620;1254;101211;-63
2024/03/18 06:48:00;;;;;;;10.40;4.50;;;;;;;5.42;73.00;101143.52;107638;1251;113307;-62
2024/03/18 06:50:29;;;;;;;15.90;5.50;;;;;;;5.44;72.58;101138.40;107612;1251;109074;-63
2024/03/18 06:53:00;;;;;;;14.40;5.90;;;;;;;5.49;72.73;101130.31;107666;1251;108501;-62
2024/03/18 06:55:30;;;;;;;11.90;4.80;;;;;;;5.57;72.57;101128.03;107522;1254;99154;-65
2024/03/18 06:58:04;;;;;;;12.10;5.20;;;;;;;5.62;71.80;101123.58;107585;1251;99329;-65
2024/03/18 07:00:33;;;;;;;14.10;5.80;;;;;;;5.72;71.89;101123.15;107605;1251;111749;-65
2024/03/18 07:03:01;;;;;;;9.80;4.80;;;;;;;5.87;71.95;101120.08;107626;1251;108525;-62
2024/03/18 07:05:30;;;;;;;15.10;6.10;;;;;;;6.05;72.28;101109.55;107653;1251;108680;-63
2024/03/18 07:07:59;;;;;;;10.40;5.00;;;;;;;6.26;72.02;101109.26;107531;1254;99223;-64
2024/03/18 07:10:27;;;;;;;12.00;5.00;;;;;;;6.42;72.34;101112.30;107594;1251;99252;-61
2024/03/18 07:12:55;;;;;;;11.00;5.40;;;;;;;6.56;71.42;101108.90;107575;1254;113514;-63
2024/03/18 07:15:24;;;;;;;13.10;5.50;;;;;;;6.64;70.40;101105.02;107615;1254;107459;-62
2024/03/18 07:17:52;;;;;;;13.70;5.20;;;;;;;6.69;70.51;101106.80;107581;1254;108193;-62
2024/03/18 07:20:21;;;;;;;13.60;5.30;;;;;;;6.72;70.54;101101.59;107590;1254;99152;-62
2024/03/18 07:22:56;;;;;;;13.90;5.20;;;;;;;6.79;70.63;101098.88;107571;1254;99704;-69
2024/03/18 07:25:25;;;;;;;16.40;5.60;;;;;;;6.88;70.84;101100.58;107627;1251;113136;-61
2024/03/18 07:27:53;;;;;;;13.60;5.40;;;;;;;6.99;70.93;101099.08;107586;1251;107793;-62
2024/03/18 07:30:21;;;;;;;11.20;4.90;;;;;;;7.12;70.43;101102.89;107511;1253;107283;-63
2024/03/18 07:32:50;;;;;;;11.30;4.90;;;;;;;7.07;67.56;101110.35;107622;1251;99230;-64
2024/03/18 07:35:18;;;;;;;14.10;5.50;;;;;;;6.95;66.53;101111.55;107602;1255;100171;-64
2024/03/18 07:37:46;;;;;;;13.10;5.40;;;;;;;6.97;66.61;101106.91;107658;1251;113136;-62
2024/03/18 07:40:15;;;;;;;13.60;5.40;;;;;;;7.00;64.94;101106.53;107632;1251;107527;-62
2024/03/18 07:42:43;;;;;;;11.30;4.90;;;;;;;7.10;65.58;101104.94;107645;1251;106885;-62
2024/03/18 07:45:11;;;;;;;11.20;5.40;;;;;;;7.18;63.90;101111.34;107648;1251;99182;-63
2024/03/18 07:47:39;;;;;;;15.10;6.00;;;;;;;7.32;64.57;101108.25;107684;1254;99065;-62
2024/03/18 07:50:10;;;;;;;14.40;5.20;;;;;;;7.46;64.41;101102.31;107552;1254;112489;-63
2024/03/18 07:52:40;;;;;;;19.00;5.80;;;;;;;7.60;64.95;101096.30;107572;1250;107843;-62
2024/03/18 07:55:10;;;;;;;13.70;5.10;;;;;;;7.76;64.41;101094.84;107631;1254;108796;-63
2024/03/18 07:57:38;;;;;;;18.80;6.10;;;;;;;7.94;64.56;101088.76;107063;1253;752491;-63
2024/03/18 08:00:11;;;;;;;14.60;5.20;;;;;;;8.15;63.73;101091.55;107612;1253;99243;-63
2024/03/18 08:02:40;;;;;;;20.30;6.70;;;;;;;8.28;63.10;101085.77;107678;1254;112454;-64
2024/03/18 08:05:08;;;;;;;9.50;4.70;;;;;;;8.46;61.96;101090.86;107569;1254;107905;-62
2024/03/18 08:07:36;;;;;;;12.50;5.10;;;;;;;8.60;61.55;101094.87;107602;1254;108729;-63
2024/03/18 08:10:05;;;;;;;11.00;3.80;;;;;;;8.73;61.56;101095.14;107599;1252;99251;-62
2024/03/18 08:12:33;;;;;;;6.80;3.90;;;;;;;8.88;59.20;101092.24;107582;1254;99066;-64
2024/03/18 08:15:03;;;;;;;14.10;4.80;;;;;;;9.03;59.67;101088.71;107585;1252;111702;-62
2024/03/18 08:17:31;;;;;;;15.60;4.30;;;;;;;9.13;57.21;101086.34;107634;1254;108327;-62
2024/03/18 08:19:59;;;;;;;9.90;3.60;;;;;;;9.21;58.06;101085.96;107594;1253;107177;-62
2024/03/18 08:22:27;;;;;;;15.70;5.40;;;;;;;9.36;57.98;101080.81;107501;1253;99191;-62
2024/03/18 08:24:56;;;;;;;11.30;4.40;;;;;;;9.54;56.70;101084.95;107518;1253;99737;-62
2024/03/18 08:27:29;;;;;;;14.20;4.60;;;;;;;9.70;56.01;101077.82;107579;1254;113111;-64
2024/03/18 08:29:58;;;;;;;9.20;3.60;;;;;;;9.90;56.29;101079.72;107560;1256;108998;-62
2024/03/18 08:32:26;;;;;;;16.30;3.90;;;;;;;10.05;54.61;101075.36;107497;1254;107610;-63
2024/03/18 08:34:54;;;;;;;7.30;3.50;;;;;;;10.13;54.02;101076.98;107545;1252;99272;-66
2024/03/18 08:37:22;;;;;;;26.50;4.40;;;;;;;10.28;54.07;101068.08;107479;1253;99070;-63
2024/03/18 08:39:54;;;;;;;15.00;3.80;;;;;;;10.43;52.15;101069.19;107518;1254;113413;-62
2024/03/18 08:42:22;;;;;;;8.70;2.80;;;;;;;10.50;51.84;101067.19;107520;1253;108388;-64
2024/03/18 08:44:51;;;;;;;23.70;4.00;;;;;;;10.53;50.69;101062.84;107538;1252;107980;-62
2024/03/18 08:47:20;;;;;;;9.20;3.80;;;;;;;10.58;51.18;101065.64;107491;1255;99333;-62
2024/03/18 08:49:49;;;;;;;10.60;3.40;;;;;;;10.62;49.73;101067.98;107614;1254;99075;-63
2024/03/18 08:52:17;;;;;;;5.80;3.40;;;;;;;10.54;48.63;101069.25;107598;1251;113521;-63
2024/03/18 08:54:47;;;;;;;8.40;3.00;;;;;;;10.50;50.09;101063.84;107580;1253;108021;-62
2024/03/18 08:57:15;;;;;;;11.10;3.00;;;;;;;10.56;50.35;101066.17;107594;1256;108200;-63
2024/03/18 08:59:43;;;;;;;10.20;3.10;;;;;;;10.65;50.32;101066.33;107565;1254;99275;-62
2024/03/18 09:02:12;;;;;;;13.90;4.30;;;;;;;10.77;51.09;101058.84;107639;1251;99172;-62
2024/03/18 09:04:40;;;;;;;7.80;3.30;;;;;;;10.90;49.80;101057.76;107572;1254;113655;-62
2024/03/18 09:07:09;;;;;;;8.40;3.20;;;;;;;10.85;48.07;101063.41;107619;1254;107374;-62
2024/03/18 09:09:37;;;;;;;23.20;3.20;;;;;;;10.81;46.75;101064.59;107577;1254;108200;-62
2024/03/18 09:12:07;;;;;;;10.20;3.60;;;;;;;10.73;46.76;101053.98;107588;1254;99192;-64
2024/03/18 09:14:35;;;;;;;16.00;3.00;;;;;;;10.74;46.21;101053.54;107660;1254;99811;-63
2024/03/18 09:17:03;;;;;;;19.10;3.30;;;;;;;10.75;46.23;101054.69;107614;1251;113187;-64
2024/03/18 09:19:40;;;;;;;9.40;3.20;;;;;;;10.86;47.32;101050.74;107626;1251;107496;-63
2024/03/18 09:22:08;;;;;;;10.50;2.60;;;;;;;11.05;46.39;101054.32;107586;1251;108556;-65
2024/03/18 09:24:36;;;;;;;7.50;2.60;;;;;;;11.18;46.59;101051.05;107562;1251;99723;-64
2024/03/18 09:27:06;;;;;;;14.10;3.00;;;;;;;11.33;45.84;101053.55;107581;1254;99061;-64
2024/03/18 09:29:35;;;;;;;14.90;3.80;;;;;;;11.42;45.85;101052.02;107650;1251;113077;-64
2024/03/18 09:32:03;;;;;;;11.20;3.10;;;;;;;11.51;45.02;101049.07;107642;1251;108724;-64
2024/03/18 09:34:31;;;;;;;7.50;2.60;;;;;;;11.51;43.98;101052.00;107706;1251;108768;-67
2024/03/18 09:36:59;;;;;;;17.00;2.60;;;;;;;11.47;43.68;101047.67;107547;1254;99176;-62
2024/03/18 09:39:27;;;;;;;9.90;2.90;;;;;;;11.49;43.00;101044.77;107628;1254;99829;-62
2024/03/18 09:41:56;;;;;;;9.40;3.10;;;;;;;11.46;42.65;101046.88;107559;1254;113302;-61
2024/03/18 09:44:24;;;;;;;8.00;2.60;;;;;;;11.40;43.82;101046.42;107593;1254;108318;-63
2024/03/18 09:46:56;;;;;;;6.70;3.20;;;;;;;11.44;44.58;101045.19;107548;1251;106646;-63
2024/03/18 09:49:25;;;;;;;8.60;4.20;;;;;;;11.57;44.75;101047.82;107646;1253;99367;-64
2024/03/18 09:51:54;;;;;;;16.30;4.60;;;;;;;11.64;44.58;101046.75;107660;1254;100889;-61
2024/03/18 09:54:22;;;;;;;8.80;3.30;;;;;;;11.73;45.04;101046.20;107618;1254;113389;-62
2024/03/18 09:57:10;;;;;;;10.10;3.60;;;;;;;11.78;44.93;101040.23;107585;1253;107858;-63
2024/03/18 09:59:38;;;;;;;7.90;3.50;;;;;;;11.84;44.89;101039.89;107546;1254;107834;-63
2024/03/18 10:02:15;;;;;;;13.10;3.00;;;;;;;11.75;43.97;101035.84;107592;1254;100588;-62
2024/03/18 10:04:47;;;;;;;19.40;3.40;;;;;;;11.69;43.82;101034.90;107644;1254;100002;-63
2024/03/18 10:07:16;;;;;;;11.80;3.70;;;;;;;11.52;42.24;101034.84;107525;1254;112567;-67
2024/03/18 10:09:47;;;;;;;7.60;3.20;;;;;;;11.08;41.78;101032.52;107636;1254;107543;-62
2024/03/18 10:12:16;;;;;;;13.70;3.40;;;;;;;10.87;43.18;101030.94;107561;1254;107526;-63
2024/03/18 10:14:45;;;;;;;13.70;3.60;;;;;;;10.80;42.87;101030.30;107638;1253;99165;-64
2024/03/18 10:17:15;;;;;;;7.80;3.30;;;;;;;10.74;43.33;101021.11;107530;1253;99733;-63
2024/03/18 10:19:44;;;;;;;17.10;2.90;;;;;;;10.75;43.60;101022.08;107608;1254;113686;-62
2024/03/18 10:22:14;;;;;;;13.30;3.50;;;;;;;10.79;43.52;101024.21;107643;1254;106998;-64
2024/03/18 10:24:43;;;;;;;11.80;3.50;;;;;;;10.86;44.10;101020.11;107630;1252;108848;-62
2024/03/18 10:27:13;;;;;;;14.10;3.40;;;;;;;10.88;43.93;101020.65;107592;1254;99843;-63
2024/03/18 10:29:41;;;;;;;10.00;3.50;;;;;;;10.85;44.29;101014.58;107635;1254;99093;-64
2024/03/18 10:32:26;;;;;;;6.70;3.40;;;;;;;10.87;44.33;101009.77;107667;1254;113066;-63
2024/03/18 10:35:01;;;;;;;8.20;2.90;;;;;;;10.88;44.56;101012.14;107638;1254;107796;-63
2024/03/18 10:37:32;;;;;;;9.20;3.10;;;;;;;10.86;44.17;101011.44;107528;1254;108632;-63
2024/03/18 10:40:10;;;;;;;15.50;2.80;;;;;;;10.90;43.53;101011.48;107643;1254;99220;-63
2024/03/18 10:42:44;;;;;;;9.90;2.90;;;;;;;10.90;42.69;101008.80;107688;1253;99057;-62
2024/03/18 10:45:17;;;;;;;10.60;2.60;;;;;;;10.84;42.84;101011.09;107609;1254;111832;-64
2024/03/18 10:47:45;;;;;;;12.10;2.90;;;;;;;10.75;43.50;101006.79;107655;1253;109100;-64
2024/03/18 10:50:16;;;;;;;10.50;2.40;;;;;;;10.72;43.66;101008.91;107614;1251;109487;-63
2024/03/18 10:52:44;;;;;;;9.40;2.90;;;;;;;10.70;44.10;101007.40;107705;1251;99178;-63
2024/03/18 10:55:22;;;;;;;7.80;3.30;;;;;;;10.67;44.00;101006.61;107600;1251;99755;-64
2024/03/18 10:57:58;;;;;;;7.40;4.10;;;;;;;10.58;43.90;101005.20;107614;1254;113090;-62
2024/03/18 11:00:28;;;;;;;14.90;7.40;;;;;;;10.55;44.35;101002.98;107549;1251;107376;-63
2024/03/18 11:03:01;;;;;;;10.70;5.20;;;;;;;10.52;44.71;101003.19;107635;1251;107227;-62
2024/03/18 11:05:34;;;;;;;8.70;2.50;;;;;;;10.49;44.42;101001.27;107565;1251;99272;-63
2024/03/18 11:08:08;;;;;;;5.80;2.00;;;;;;;10.45;42.25;100998.93;107616;1255;99794;-62
2024/03/18 11:10:39;;;;;;;3.90;2.00;;;;;;;10.32;41.55;100996.41;107584;1256;113195;-67
2024/03/18 11:13:15;;;;;;;10.90;2.60;;;;;;;10.26;41.26;100996.05;107646;1254;108637;-63
2024/03/18 11:15:46;;;;;;;6.30;2.20;;;;;;;10.20;41.90;100993.45;107605;1254;106951;-62
2024/03/18 11:18:20;;;;;;;13.50;2.90;;;;;;;10.18;42.33;100994.66;107621;1254;99170;-63
2024/03/18 11:20:52;;;;;;;;;;;;;;;10.16;42.77;100995.95;107671;1254;99137;-62
2024/03/18 11:23:27;;;;;;;19.30;2.90;;;;;;;10.13;42.45;100997.95;107654;1258;112926;-64